sensor_id;sensor_type;location;lat;lon;timestamp;temperature;humidity
26164;DHT22;13914;48.178;11.716;2023-02-20T00:02:44;7.70;86.30
26164;DHT22;13914;48.178;11.716;2023-02-20T00:05:28;7.70;86.40
26164;DHT22;13914;48.178;11.716;2023-02-20T00:08:13;7.70;86.30
26164;DHT22;13914;48.178;11.716;2023-02-20T00:10:57;7.70;86.40
26164;DHT22;13914;48.178;11.716;2023-02-20T00:13:46;7.60;86.30
26164;DHT22;13914;48.178;11.716;2023-02-20T00:16:31;7.70;86.60
26164;DHT22;13914;48.178;11.716;2023-02-20T00:19:16;7.70;86.50
26164;DHT22;13914;48.178;11.716;2023-02-20T00:22:00;7.70;86.50
26164;DHT22;13914;48.178;11.716;2023-02-20T00:24:45;7.70;86.50
26164;DHT22;13914;48.178;11.716;2023-02-20T00:27:29;7.60;86.40
26164;DHT22;13914;48.178;11.716;2023-02-20T00:30:19;7.60;86.60
26164;DHT22;13914;48.178;11.716;2023-02-20T00:33:05;7.60;86.60
26164;DHT22;13914;48.178;11.716;2023-02-20T00:35:49;7.60;86.40
26164;DHT22;13914;48.178;11.716;2023-02-20T00:38:34;7.60;86.60
26164;DHT22;13914;48.178;11.716;2023-02-20T00:41:18;7.60;86.60
26164;DHT22;13914;48.178;11.716;2023-02-20T00:44:02;7.60;86.70
26164;DHT22;13914;48.178;11.716;2023-02-20T00:46:47;7.60;86.70
26164;DHT22;13914;48.178;11.716;2023-02-20T00:49:32;7.60;86.70
26164;DHT22;13914;48.178;11.716;2023-02-20T00:52:16;7.60;86.60
26164;DHT22;13914;48.178;11.716;2023-02-20T00:55:02;7.60;86.80
26164;DHT22;13914;48.178;11.716;2023-02-20T00:57:46;7.50;86.70
26164;DHT22;13914;48.178;11.716;2023-02-20T01:00:31;7.50;86.70
26164;DHT22;13914;48.178;11.716;2023-02-20T01:03:15;7.50;86.90
26164;DHT22;13914;48.178;11.716;2023-02-20T01:06:00;7.50;86.90
26164;DHT22;13914;48.178;11.716;2023-02-20T01:08:45;7.50;86.90
26164;DHT22;13914;48.178;11.716;2023-02-20T01:11:30;7.50;86.80
26164;DHT22;13914;48.178;11.716;2023-02-20T01:14:15;7.50;86.90
26164;DHT22;13914;48.178;11.716;2023-02-20T01:16:59;7.50;86.90
26164;DHT22;13914;48.178;11.716;2023-02-20T01:19:44;7.50;86.90
26164;DHT22;13914;48.178;11.716;2023-02-20T01:22:28;7.50;87.10
26164;DHT22;13914;48.178;11.716;2023-02-20T01:25:12;7.50;87.00
26164;DHT22;13914;48.178;11.716;2023-02-20T01:27:57;7.50;87.30
26164;DHT22;13914;48.178;11.716;2023-02-20T01:30:42;7.50;87.10
26164;DHT22;13914;48.178;11.716;2023-02-20T01:33:26;7.50;87.10
26164;DHT22;13914;48.178;11.716;2023-02-20T01:36:11;7.50;87.10
26164;DHT22;13914;48.178;11.716;2023-02-20T01:38:56;7.50;87.20
26164;DHT22;13914;48.178;11.716;2023-02-20T01:41:40;7.40;87.20
26164;DHT22;13914;48.178;11.716;2023-02-20T01:44:30;7.50;87.10
26164;DHT22;13914;48.178;11.716;2023-02-20T01:47:18;7.40;87.30
26164;DHT22;13914;48.178;11.716;2023-02-20T01:50:07;7.40;87.40
26164;DHT22;13914;48.178;11.716;2023-02-20T01:52:55;7.40;87.30
26164;DHT22;13914;48.178;11.716;2023-02-20T01:56:04;7.50;87.40
26164;DHT22;13914;48.178;11.716;2023-02-20T01:58:51;7.40;87.50
26164;DHT22;13914;48.178;11.716;2023-02-20T02:01:36;7.40;87.50
26164;DHT22;13914;48.178;11.716;2023-02-20T02:04:21;7.40;87.60
26164;DHT22;13914;48.178;11.716;2023-02-20T02:07:05;7.40;87.60
26164;DHT22;13914;48.178;11.716;2023-02-20T02:10:00;7.40;87.70
26164;DHT22;13914;48.178;11.716;2023-02-20T02:12:48;7.40;87.60
26164;DHT22;13914;48.178;11.716;2023-02-20T02:15:36;7.40;87.90
26164;DHT22;13914;48.178;11.716;2023-02-20T02:28:33;7.30;88.10
26164;DHT22;13914;48.178;11.716;2023-02-20T02:37:25;7.30;88.40
26164;DHT22;13914;48.178;11.716;2023-02-20T02:46:40;7.30;88.40
26164;DHT22;13914;48.178;11.716;2023-02-20T02:52:27;7.30;88.50
26164;DHT22;13914;48.178;11.716;2023-02-20T02:55:29;7.30;88.70
26164;DHT22;13914;48.178;11.716;2023-02-20T02:58:19;7.30;88.60
26164;DHT22;13914;48.178;11.716;2023-02-20T03:01:03;7.30;88.50
26164;DHT22;13914;48.178;11.716;2023-02-20T03:03:48;7.30;88.70
26164;DHT22;13914;48.178;11.716;2023-02-20T03:06:38;7.30;88.80
26164;DHT22;13914;48.178;11.716;2023-02-20T03:09:31;7.30;88.50
26164;DHT22;13914;48.178;11.716;2023-02-20T03:12:19;7.30;88.50
26164;DHT22;13914;48.178;11.716;2023-02-20T03:18:32;7.30;88.50
26164;DHT22;13914;48.178;11.716;2023-02-20T03:21:21;7.30;88.60
26164;DHT22;13914;48.178;11.716;2023-02-20T03:24:08;7.30;88.90
26164;DHT22;13914;48.178;11.716;2023-02-20T03:26:56;7.20;88.90
26164;DHT22;13914;48.178;11.716;2023-02-20T03:29:41;7.20;88.90
26164;DHT22;13914;48.178;11.716;2023-02-20T03:32:27;7.20;88.80
26164;DHT22;13914;48.178;11.716;2023-02-20T03:35:34;7.30;89.10
26164;DHT22;13914;48.178;11.716;2023-02-20T03:38:40;7.20;89.00
26164;DHT22;13914;48.178;11.716;2023-02-20T03:41:45;7.20;89.00
26164;DHT22;13914;48.178;11.716;2023-02-20T03:44:49;7.20;89.10
26164;DHT22;13914;48.178;11.716;2023-02-20T03:47:36;7.20;89.10
26164;DHT22;13914;48.178;11.716;2023-02-20T03:50:23;7.20;89.20
26164;DHT22;13914;48.178;11.716;2023-02-20T03:53:07;7.20;89.30
26164;DHT22;13914;48.178;11.716;2023-02-20T03:55:54;7.10;89.40
26164;DHT22;13914;48.178;11.716;2023-02-20T03:58:42;7.10;89.40
26164;DHT22;13914;48.178;11.716;2023-02-20T04:01:31;7.10;89.30
26164;DHT22;13914;48.178;11.716;2023-02-20T04:04:24;7.10;89.30
26164;DHT22;13914;48.178;11.716;2023-02-20T04:07:21;7.10;90.00
26164;DHT22;13914;48.178;11.716;2023-02-20T04:10:11;7.10;89.10
26164;DHT22;13914;48.178;11.716;2023-02-20T04:12:58;7.10;88.90
26164;DHT22;13914;48.178;11.716;2023-02-20T04:15:44;7.10;88.80
26164;DHT22;13914;48.178;11.716;2023-02-20T04:18:29;7.10;89.20
26164;DHT22;13914;48.178;11.716;2023-02-20T04:21:33;7.10;89.40
26164;DHT22;13914;48.178;11.716;2023-02-20T04:24:29;7.00;89.20
26164;DHT22;13914;48.178;11.716;2023-02-20T04:27:19;7.00;89.40
26164;DHT22;13914;48.178;11.716;2023-02-20T04:30:05;6.90;89.40
26164;DHT22;13914;48.178;11.716;2023-02-20T04:32:50;6.90;89.50
26164;DHT22;13914;48.178;11.716;2023-02-20T04:35:34;7.00;89.40
26164;DHT22;13914;48.178;11.716;2023-02-20T04:38:19;6.90;89.30
26164;DHT22;13914;48.178;11.716;2023-02-20T04:41:04;6.90;89.10
26164;DHT22;13914;48.178;11.716;2023-02-20T04:43:49;6.90;89.40
26164;DHT22;13914;48.178;11.716;2023-02-20T04:46:33;6.80;89.30
26164;DHT22;13914;48.178;11.716;2023-02-20T04:49:17;6.80;89.40
26164;DHT22;13914;48.178;11.716;2023-02-20T04:52:02;6.90;89.50
26164;DHT22;13914;48.178;11.716;2023-02-20T04:54:46;6.80;89.50
26164;DHT22;13914;48.178;11.716;2023-02-20T04:57:32;6.80;89.60
26164;DHT22;13914;48.178;11.716;2023-02-20T05:00:18;6.80;89.60
26164;DHT22;13914;48.178;11.716;2023-02-20T05:03:05;6.70;89.50
26164;DHT22;13914;48.178;11.716;2023-02-20T05:05:49;6.70;89.40
26164;DHT22;13914;48.178;11.716;2023-02-20T05:08:34;6.70;89.50
26164;DHT22;13914;48.178;11.716;2023-02-20T05:11:18;6.70;89.90
26164;DHT22;13914;48.178;11.716;2023-02-20T05:14:03;6.60;89.50
26164;DHT22;13914;48.178;11.716;2023-02-20T05:16:48;6.60;89.60
26164;DHT22;13914;48.178;11.716;2023-02-20T05:19:34;6.60;89.30
26164;DHT22;13914;48.178;11.716;2023-02-20T05:22:18;6.60;89.50
26164;DHT22;13914;48.178;11.716;2023-02-20T05:25:03;6.60;89.60
26164;DHT22;13914;48.178;11.716;2023-02-20T05:27:48;6.50;89.70
26164;DHT22;13914;48.178;11.716;2023-02-20T05:30:32;6.50;89.60
26164;DHT22;13914;48.178;11.716;2023-02-20T05:33:17;6.50;89.70
26164;DHT22;13914;48.178;11.716;2023-02-20T05:36:01;6.50;89.70
26164;DHT22;13914;48.178;11.716;2023-02-20T05:38:46;6.50;89.50
26164;DHT22;13914;48.178;11.716;2023-02-20T05:41:32;6.40;89.80
26164;DHT22;13914;48.178;11.716;2023-02-20T05:44:16;6.40;90.00
26164;DHT22;13914;48.178;11.716;2023-02-20T05:47:01;6.40;89.60
26164;DHT22;13914;48.178;11.716;2023-02-20T05:49:47;6.40;89.40
26164;DHT22;13914;48.178;11.716;2023-02-20T05:52:31;6.40;90.00
26164;DHT22;13914;48.178;11.716;2023-02-20T05:55:16;6.30;89.70
26164;DHT22;13914;48.178;11.716;2023-02-20T05:58:00;6.30;89.50
26164;DHT22;13914;48.178;11.716;2023-02-20T06:00:44;6.30;89.80
26164;DHT22;13914;48.178;11.716;2023-02-20T06:03:29;6.30;89.90
26164;DHT22;13914;48.178;11.716;2023-02-20T06:06:13;6.30;90.10
26164;DHT22;13914;48.178;11.716;2023-02-20T06:08:58;6.20;90.20
26164;DHT22;13914;48.178;11.716;2023-02-20T06:11:53;6.20;89.90
26164;DHT22;13914;48.178;11.716;2023-02-20T06:14:39;6.20;89.90
26164;DHT22;13914;48.178;11.716;2023-02-20T06:17:23;6.10;90.00
26164;DHT22;13914;48.178;11.716;2023-02-20T06:20:08;6.10;90.10
26164;DHT22;13914;48.178;11.716;2023-02-20T06:22:56;6.10;90.00
26164;DHT22;13914;48.178;11.716;2023-02-20T06:25:40;6.10;90.10
26164;DHT22;13914;48.178;11.716;2023-02-20T06:28:24;6.10;89.90
26164;DHT22;13914;48.178;11.716;2023-02-20T06:31:10;6.10;89.80
26164;DHT22;13914;48.178;11.716;2023-02-20T06:33:55;6.10;90.10
26164;DHT22;13914;48.178;11.716;2023-02-20T06:36:40;6.10;89.90
26164;DHT22;13914;48.178;11.716;2023-02-20T06:39:25;6.10;90.10
26164;DHT22;13914;48.178;11.716;2023-02-20T06:42:09;6.10;90.10
26164;DHT22;13914;48.178;11.716;2023-02-20T06:44:54;6.00;90.00
26164;DHT22;13914;48.178;11.716;2023-02-20T06:47:38;6.00;89.80
26164;DHT22;13914;48.178;11.716;2023-02-20T06:50:23;6.00;90.00
26164;DHT22;13914;48.178;11.716;2023-02-20T06:53:07;6.00;90.30
26164;DHT22;13914;48.178;11.716;2023-02-20T06:55:52;6.00;90.00
26164;DHT22;13914;48.178;11.716;2023-02-20T06:58:36;6.00;90.20
26164;DHT22;13914;48.178;11.716;2023-02-20T07:01:24;6.00;90.20
26164;DHT22;13914;48.178;11.716;2023-02-20T07:04:17;6.10;90.10
26164;DHT22;13914;48.178;11.716;2023-02-20T07:07:03;6.00;90.10
26164;DHT22;13914;48.178;11.716;2023-02-20T07:09:47;6.00;90.00
26164;DHT22;13914;48.178;11.716;2023-02-20T07:12:32;6.10;90.10
26164;DHT22;13914;48.178;11.716;2023-02-20T07:15:17;6.10;90.60
26164;DHT22;13914;48.178;11.716;2023-02-20T07:18:01;6.10;90.10
26164;DHT22;13914;48.178;11.716;2023-02-20T07:20:46;6.10;90.10
26164;DHT22;13914;48.178;11.716;2023-02-20T07:23:30;6.10;90.00
26164;DHT22;13914;48.178;11.716;2023-02-20T07:26:23;6.10;90.00
26164;DHT22;13914;48.178;11.716;2023-02-20T07:29:11;6.10;89.90
26164;DHT22;13914;48.178;11.716;2023-02-20T07:31:56;6.10;89.90
26164;DHT22;13914;48.178;11.716;2023-02-20T07:34:40;6.10;90.10
26164;DHT22;13914;48.178;11.716;2023-02-20T07:37:24;6.10;90.00
26164;DHT22;13914;48.178;11.716;2023-02-20T07:40:09;6.20;90.00
26164;DHT22;13914;48.178;11.716;2023-02-20T07:42:54;6.20;90.00
26164;DHT22;13914;48.178;11.716;2023-02-20T07:45:39;6.20;90.10
26164;DHT22;13914;48.178;11.716;2023-02-20T07:48:23;6.20;90.00
26164;DHT22;13914;48.178;11.716;2023-02-20T07:51:08;6.20;90.00
26164;DHT22;13914;48.178;11.716;2023-02-20T07:53:52;6.30;89.90
26164;DHT22;13914;48.178;11.716;2023-02-20T07:56:39;6.30;89.90
26164;DHT22;13914;48.178;11.716;2023-02-20T07:59:24;6.30;89.80
26164;DHT22;13914;48.178;11.716;2023-02-20T08:02:08;6.30;90.00
26164;DHT22;13914;48.178;11.716;2023-02-20T08:04:53;6.30;90.00
26164;DHT22;13914;48.178;11.716;2023-02-20T08:07:38;6.40;90.00
26164;DHT22;13914;48.178;11.716;2023-02-20T08:10:26;6.40;89.90
26164;DHT22;13914;48.178;11.716;2023-02-20T08:13:11;6.40;89.70
26164;DHT22;13914;48.178;11.716;2023-02-20T08:15:55;6.50;89.90
26164;DHT22;13914;48.178;11.716;2023-02-20T08:18:40;6.50;90.00
26164;DHT22;13914;48.178;11.716;2023-02-20T08:21:24;6.50;89.70
26164;DHT22;13914;48.178;11.716;2023-02-20T08:24:09;6.50;89.60
26164;DHT22;13914;48.178;11.716;2023-02-20T08:26:54;6.60;89.70
26164;DHT22;13914;48.178;11.716;2023-02-20T08:29:38;6.70;89.70
26164;DHT22;13914;48.178;11.716;2023-02-20T08:32:22;6.70;89.80
26164;DHT22;13914;48.178;11.716;2023-02-20T08:35:07;6.80;89.80
26164;DHT22;13914;48.178;11.716;2023-02-20T08:37:51;6.80;90.00
26164;DHT22;13914;48.178;11.716;2023-02-20T08:40:36;6.90;90.00
26164;DHT22;13914;48.178;11.716;2023-02-20T08:43:20;7.00;89.60
26164;DHT22;13914;48.178;11.716;2023-02-20T08:46:06;7.20;89.50
26164;DHT22;13914;48.178;11.716;2023-02-20T08:48:50;7.20;89.10
26164;DHT22;13914;48.178;11.716;2023-02-20T08:51:35;7.40;88.80
26164;DHT22;13914;48.178;11.716;2023-02-20T08:54:19;7.50;88.80
26164;DHT22;13914;48.178;11.716;2023-02-20T08:57:04;7.60;88.50
26164;DHT22;13914;48.178;11.716;2023-02-20T08:59:48;7.70;89.60
26164;DHT22;13914;48.178;11.716;2023-02-20T09:02:33;7.80;89.80
26164;DHT22;13914;48.178;11.716;2023-02-20T09:05:17;7.90;89.70
26164;DHT22;13914;48.178;11.716;2023-02-20T09:08:02;8.00;89.60
26164;DHT22;13914;48.178;11.716;2023-02-20T09:10:47;8.10;89.60
26164;DHT22;13914;48.178;11.716;2023-02-20T09:13:31;8.20;89.50
26164;DHT22;13914;48.178;11.716;2023-02-20T09:16:19;8.20;88.70
26164;DHT22;13914;48.178;11.716;2023-02-20T09:19:06;8.30;88.40
26164;DHT22;13914;48.178;11.716;2023-02-20T09:21:51;8.40;88.40
26164;DHT22;13914;48.178;11.716;2023-02-20T09:24:35;8.50;88.30
26164;DHT22;13914;48.178;11.716;2023-02-20T09:27:20;8.60;87.70
26164;DHT22;13914;48.178;11.716;2023-02-20T09:30:05;8.70;87.80
26164;DHT22;13914;48.178;11.716;2023-02-20T09:32:50;8.80;88.10
26164;DHT22;13914;48.178;11.716;2023-02-20T09:35:34;8.90;88.10
26164;DHT22;13914;48.178;11.716;2023-02-20T09:38:22;9.00;88.00
26164;DHT22;13914;48.178;11.716;2023-02-20T09:41:21;9.20;87.80
26164;DHT22;13914;48.178;11.716;2023-02-20T09:44:31;9.30;87.50
26164;DHT22;13914;48.178;11.716;2023-02-20T09:51:23;9.70;86.50
26164;DHT22;13914;48.178;11.716;2023-02-20T09:56:56;9.90;85.60
26164;DHT22;13914;48.178;11.716;2023-02-20T09:59:46;10.00;85.20
26164;DHT22;13914;48.178;11.716;2023-02-20T10:02:36;10.10;84.80
26164;DHT22;13914;48.178;11.716;2023-02-20T10:05:26;10.20;84.10
26164;DHT22;13914;48.178;11.716;2023-02-20T10:08:18;10.30;84.70
26164;DHT22;13914;48.178;11.716;2023-02-20T10:11:05;10.40;84.00
26164;DHT22;13914;48.178;11.716;2023-02-20T10:14:08;10.40;83.30
26164;DHT22;13914;48.178;11.716;2023-02-20T10:17:37;10.50;83.70
26164;DHT22;13914;48.178;11.716;2023-02-20T10:24:07;10.80;84.00
26164;DHT22;13914;48.178;11.716;2023-02-20T10:30:04;11.00;81.90
26164;DHT22;13914;48.178;11.716;2023-02-20T10:36:05;11.10;83.50
26164;DHT22;13914;48.178;11.716;2023-02-20T10:39:13;11.20;81.10
26164;DHT22;13914;48.178;11.716;2023-02-20T10:42:22;11.40;82.70
26164;DHT22;13914;48.178;11.716;2023-02-20T10:45:23;11.40;82.80
26164;DHT22;13914;48.178;11.716;2023-02-20T10:48:12;11.50;81.90
26164;DHT22;13914;48.178;11.716;2023-02-20T10:51:33;11.60;82.20
26164;DHT22;13914;48.178;11.716;2023-02-20T10:57:33;11.70;79.50
26164;DHT22;13914;48.178;11.716;2023-02-20T11:00:31;11.80;81.30
26164;DHT22;13914;48.178;11.716;2023-02-20T11:03:56;11.80;81.10
26164;DHT22;13914;48.178;11.716;2023-02-20T11:06:59;11.90;80.90
26164;DHT22;13914;48.178;11.716;2023-02-20T11:09:46;11.90;80.80
26164;DHT22;13914;48.178;11.716;2023-02-20T11:12:47;12.00;78.40
26164;DHT22;13914;48.178;11.716;2023-02-20T11:15:33;12.10;80.30
26164;DHT22;13914;48.178;11.716;2023-02-20T11:18:25;12.20;79.60
26164;DHT22;13914;48.178;11.716;2023-02-20T11:21:39;12.20;78.60
26164;DHT22;13914;48.178;11.716;2023-02-20T11:24:33;12.30;78.70
26164;DHT22;13914;48.178;11.716;2023-02-20T11:27:23;12.30;79.00
26164;DHT22;13914;48.178;11.716;2023-02-20T11:30:20;12.40;78.40
26164;DHT22;13914;48.178;11.716;2023-02-20T11:33:22;12.50;77.10
26164;DHT22;13914;48.178;11.716;2023-02-20T11:36:11;12.50;79.60
26164;DHT22;13914;48.178;11.716;2023-02-20T11:39:01;12.60;77.90
26164;DHT22;13914;48.178;11.716;2023-02-20T11:41:50;12.70;78.10
26164;DHT22;13914;48.178;11.716;2023-02-20T11:45:19;12.70;79.40
26164;DHT22;13914;48.178;11.716;2023-02-20T11:48:13;12.80;79.30
26164;DHT22;13914;48.178;11.716;2023-02-20T11:50:59;13.00;78.70
26164;DHT22;13914;48.178;11.716;2023-02-20T11:53:43;13.00;77.60
26164;DHT22;13914;48.178;11.716;2023-02-20T11:56:28;13.10;79.20
26164;DHT22;13914;48.178;11.716;2023-02-20T12:05:00;13.40;79.80
26164;DHT22;13914;48.178;11.716;2023-02-20T12:10:42;13.50;76.70
26164;DHT22;13914;48.178;11.716;2023-02-20T12:13:30;13.60;76.60
26164;DHT22;13914;48.178;11.716;2023-02-20T12:19:21;13.70;74.00
26164;DHT22;13914;48.178;11.716;2023-02-20T12:22:35;13.80;77.30
26164;DHT22;13914;48.178;11.716;2023-02-20T12:26:27;13.90;75.80
26164;DHT22;13914;48.178;11.716;2023-02-20T12:29:21;13.90;73.90
26164;DHT22;13914;48.178;11.716;2023-02-20T12:35:35;14.10;74.40
26164;DHT22;13914;48.178;11.716;2023-02-20T12:41:49;14.20;73.50
26164;DHT22;13914;48.178;11.716;2023-02-20T12:47:34;14.40;74.60
26164;DHT22;13914;48.178;11.716;2023-02-20T12:57:17;14.50;72.80
26164;DHT22;13914;48.178;11.716;2023-02-20T13:00:21;14.60;70.60
26164;DHT22;13914;48.178;11.716;2023-02-20T13:03:18;14.70;73.00
26164;DHT22;13914;48.178;11.716;2023-02-20T13:06:07;14.70;73.60
26164;DHT22;13914;48.178;11.716;2023-02-20T13:09:22;14.80;74.00
26164;DHT22;13914;48.178;11.716;2023-02-20T13:12:14;14.90;72.60
26164;DHT22;13914;48.178;11.716;2023-02-20T13:18:31;15.00;74.60
26164;DHT22;13914;48.178;11.716;2023-02-20T13:21:23;15.00;72.30
26164;DHT22;13914;48.178;11.716;2023-02-20T13:23:49;15.20;73.90
26164;DHT22;13914;48.178;11.716;2023-02-20T13:29:19;15.30;73.60
26164;DHT22;13914;48.178;11.716;2023-02-20T13:31:59;15.40;74.10
26164;DHT22;13914;48.178;11.716;2023-02-20T13:34:46;15.40;73.70
26164;DHT22;13914;48.178;11.716;2023-02-20T13:54:13;15.70;71.90
26164;DHT22;13914;48.178;11.716;2023-02-20T13:56:55;15.70;72.70
26164;DHT22;13914;48.178;11.716;2023-02-20T13:59:26;15.70;70.60
26164;DHT22;13914;48.178;11.716;2023-02-20T14:04:23;15.70;71.50
26164;DHT22;13914;48.178;11.716;2023-02-20T14:06:53;15.70;70.60
26164;DHT22;13914;48.178;11.716;2023-02-20T14:09:23;15.80;72.30
26164;DHT22;13914;48.178;11.716;2023-02-20T14:12:06;15.80;71.90
26164;DHT22;13914;48.178;11.716;2023-02-20T14:14:39;15.80;68.60
26164;DHT22;13914;48.178;11.716;2023-02-20T14:17:12;15.70;69.70
26164;DHT22;13914;48.178;11.716;2023-02-20T14:19:42;15.70;71.20
26164;DHT22;13914;48.178;11.716;2023-02-20T14:27:50;15.80;70.80
26164;DHT22;13914;48.178;11.716;2023-02-20T14:30:21;15.80;71.30
26164;DHT22;13914;48.178;11.716;2023-02-20T14:32:53;15.70;68.50
26164;DHT22;13914;48.178;11.716;2023-02-20T14:35:48;15.70;70.20
26164;DHT22;13914;48.178;11.716;2023-02-20T14:41:22;15.70;69.10
26164;DHT22;13914;48.178;11.716;2023-02-20T14:44:00;15.70;69.90
26164;DHT22;13914;48.178;11.716;2023-02-20T14:46:33;15.60;70.20
26164;DHT22;13914;48.178;11.716;2023-02-20T14:49:22;15.60;69.80
26164;DHT22;13914;48.178;11.716;2023-02-20T14:51:49;15.60;69.00
26164;DHT22;13914;48.178;11.716;2023-02-20T14:54:22;15.60;69.60
26164;DHT22;13914;48.178;11.716;2023-02-20T14:56:51;15.50;66.90
26164;DHT22;13914;48.178;11.716;2023-02-20T14:59:32;15.50;67.10
26164;DHT22;13914;48.178;11.716;2023-02-20T15:04:52;15.40;71.70
26164;DHT22;13914;48.178;11.716;2023-02-20T15:07:23;15.50;71.20
26164;DHT22;13914;48.178;11.716;2023-02-20T15:09:53;15.50;70.20
26164;DHT22;13914;48.178;11.716;2023-02-20T15:12:23;15.40;72.10
26164;DHT22;13914;48.178;11.716;2023-02-20T15:15:10;15.40;70.90
26164;DHT22;13914;48.178;11.716;2023-02-20T15:17:40;15.40;72.20
26164;DHT22;13914;48.178;11.716;2023-02-20T15:20:28;15.40;72.30
26164;DHT22;13914;48.178;11.716;2023-02-20T15:23:20;15.30;70.50
26164;DHT22;13914;48.178;11.716;2023-02-20T15:25:58;15.30;71.20
26164;DHT22;13914;48.178;11.716;2023-02-20T15:29:22;15.20;70.90
26164;DHT22;13914;48.178;11.716;2023-02-20T15:31:58;15.20;69.20
26164;DHT22;13914;48.178;11.716;2023-02-20T15:34:29;15.10;68.00
26164;DHT22;13914;48.178;11.716;2023-02-20T15:36:58;15.10;70.90
26164;DHT22;13914;48.178;11.716;2023-02-20T15:39:24;15.00;68.60
26164;DHT22;13914;48.178;11.716;2023-02-20T15:41:50;15.00;70.70
26164;DHT22;13914;48.178;11.716;2023-02-20T15:44:18;14.90;69.40
26164;DHT22;13914;48.178;11.716;2023-02-20T15:46:44;14.90;70.80
26164;DHT22;13914;48.178;11.716;2023-02-20T15:49:10;14.90;69.30
26164;DHT22;13914;48.178;11.716;2023-02-20T15:51:39;14.80;69.90
26164;DHT22;13914;48.178;11.716;2023-02-20T15:54:10;14.80;69.90
26164;DHT22;13914;48.178;11.716;2023-02-20T15:56:41;14.70;71.00
26164;DHT22;13914;48.178;11.716;2023-02-20T15:59:08;14.70;73.00
26164;DHT22;13914;48.178;11.716;2023-02-20T16:01:37;14.70;72.50
26164;DHT22;13914;48.178;11.716;2023-02-20T16:04:07;14.70;71.50
26164;DHT22;13914;48.178;11.716;2023-02-20T16:06:33;14.60;71.90
26164;DHT22;13914;48.178;11.716;2023-02-20T16:08:59;14.60;71.50
26164;DHT22;13914;48.178;11.716;2023-02-20T16:11:33;14.50;69.30
26164;DHT22;13914;48.178;11.716;2023-02-20T16:14:03;14.50;72.50
26164;DHT22;13914;48.178;11.716;2023-02-20T16:16:32;14.40;72.10
26164;DHT22;13914;48.178;11.716;2023-02-20T16:19:01;14.30;72.00
26164;DHT22;13914;48.178;11.716;2023-02-20T16:21:28;14.30;72.40
26164;DHT22;13914;48.178;11.716;2023-02-20T16:23:54;14.30;73.10
26164;DHT22;13914;48.178;11.716;2023-02-20T16:26:22;14.20;73.30
26164;DHT22;13914;48.178;11.716;2023-02-20T16:29:02;14.20;73.40
26164;DHT22;13914;48.178;11.716;2023-02-20T16:34:24;14.10;73.40
26164;DHT22;13914;48.178;11.716;2023-02-20T16:36:53;14.10;74.20
26164;DHT22;13914;48.178;11.716;2023-02-20T16:39:19;14.00;74.00
26164;DHT22;13914;48.178;11.716;2023-02-20T16:41:45;13.90;74.50
26164;DHT22;13914;48.178;11.716;2023-02-20T16:44:36;13.90;74.60
26164;DHT22;13914;48.178;11.716;2023-02-20T16:47:04;13.80;74.60
26164;DHT22;13914;48.178;11.716;2023-02-20T16:49:33;13.80;75.20
26164;DHT22;13914;48.178;11.716;2023-02-20T16:52:03;13.80;75.40
26164;DHT22;13914;48.178;11.716;2023-02-20T16:54:49;13.70;75.40
26164;DHT22;13914;48.178;11.716;2023-02-20T16:57:16;13.60;75.70
26164;DHT22;13914;48.178;11.716;2023-02-20T16:59:42;13.50;74.50
26164;DHT22;13914;48.178;11.716;2023-02-20T17:02:25;13.50;73.20
26164;DHT22;13914;48.178;11.716;2023-02-20T17:04:52;13.40;74.70
26164;DHT22;13914;48.178;11.716;2023-02-20T17:07:18;13.40;75.30
26164;DHT22;13914;48.178;11.716;2023-02-20T17:09:44;13.20;75.30
26164;DHT22;13914;48.178;11.716;2023-02-20T17:12:12;13.20;74.50
26164;DHT22;13914;48.178;11.716;2023-02-20T17:14:43;13.10;74.70
26164;DHT22;13914;48.178;11.716;2023-02-20T17:17:09;13.10;75.40
26164;DHT22;13914;48.178;11.716;2023-02-20T17:19:37;13.00;74.20
26164;DHT22;13914;48.178;11.716;2023-02-20T17:22:04;12.90;74.20
26164;DHT22;13914;48.178;11.716;2023-02-20T17:24:30;12.90;75.40
26164;DHT22;13914;48.178;11.716;2023-02-20T17:26:58;12.80;75.90
26164;DHT22;13914;48.178;11.716;2023-02-20T17:29:24;12.80;76.40
26164;DHT22;13914;48.178;11.716;2023-02-20T17:31:52;12.70;76.60
26164;DHT22;13914;48.178;11.716;2023-02-20T17:34:19;12.70;76.50
26164;DHT22;13914;48.178;11.716;2023-02-20T17:36:45;12.60;76.30
26164;DHT22;13914;48.178;11.716;2023-02-20T17:39:15;12.50;76.80
26164;DHT22;13914;48.178;11.716;2023-02-20T17:41:42;12.50;77.00
26164;DHT22;13914;48.178;11.716;2023-02-20T17:44:08;12.50;77.30
26164;DHT22;13914;48.178;11.716;2023-02-20T17:46:34;12.40;76.00
26164;DHT22;13914;48.178;11.716;2023-02-20T17:49:00;12.30;77.20
26164;DHT22;13914;48.178;11.716;2023-02-20T17:51:26;12.30;77.60
26164;DHT22;13914;48.178;11.716;2023-02-20T17:53:52;12.20;77.70
26164;DHT22;13914;48.178;11.716;2023-02-20T17:56:17;12.20;77.70
26164;DHT22;13914;48.178;11.716;2023-02-20T17:58:43;12.10;77.50
26164;DHT22;13914;48.178;11.716;2023-02-20T18:01:10;12.00;78.90
26164;DHT22;13914;48.178;11.716;2023-02-20T18:03:37;12.00;78.10
26164;DHT22;13914;48.178;11.716;2023-02-20T18:06:03;11.90;78.00
26164;DHT22;13914;48.178;11.716;2023-02-20T18:08:29;11.90;78.00
26164;DHT22;13914;48.178;11.716;2023-02-20T18:10:54;11.80;78.20
26164;DHT22;13914;48.178;11.716;2023-02-20T18:13:21;11.80;78.40
26164;DHT22;13914;48.178;11.716;2023-02-20T18:15:47;11.70;78.40
26164;DHT22;13914;48.178;11.716;2023-02-20T18:18:13;11.60;78.30
26164;DHT22;13914;48.178;11.716;2023-02-20T18:20:45;11.60;78.40
26164;DHT22;13914;48.178;11.716;2023-02-20T18:23:12;11.60;78.50
26164;DHT22;13914;48.178;11.716;2023-02-20T18:25:38;11.40;78.50
26164;DHT22;13914;48.178;11.716;2023-02-20T18:28:03;11.40;78.40
26164;DHT22;13914;48.178;11.716;2023-02-20T18:30:29;11.30;78.60
26164;DHT22;13914;48.178;11.716;2023-02-20T18:32:55;11.30;78.90
26164;DHT22;13914;48.178;11.716;2023-02-20T18:35:21;11.30;78.70
26164;DHT22;13914;48.178;11.716;2023-02-20T18:37:47;11.10;78.80
26164;DHT22;13914;48.178;11.716;2023-02-20T18:40:13;11.10;78.70
26164;DHT22;13914;48.178;11.716;2023-02-20T18:42:39;11.00;78.80
26164;DHT22;13914;48.178;11.716;2023-02-20T18:45:05;11.00;78.80
26164;DHT22;13914;48.178;11.716;2023-02-20T18:47:30;10.90;79.80
26164;DHT22;13914;48.178;11.716;2023-02-20T18:49:56;10.90;79.00
26164;DHT22;13914;48.178;11.716;2023-02-20T18:52:22;10.80;79.00
26164;DHT22;13914;48.178;11.716;2023-02-20T18:54:49;10.80;79.00
26164;DHT22;13914;48.178;11.716;2023-02-20T18:57:15;10.70;79.10
26164;DHT22;13914;48.178;11.716;2023-02-20T18:59:42;10.70;79.40
26164;DHT22;13914;48.178;11.716;2023-02-20T19:02:12;10.60;79.30